Urb Costas del Atlantico, Puerto Rico
Current Conditions -  °F | °C
As of 7:50 AM on Tuesday 21 Oct 2014 (Local Time) from TJBQ Reporting Station
Clear Clear  
Wind Chill: 79°   Ceiling: Unl
Heat Index: 82°   Visibility: 10mi
Dew Point: 72°   Wind: 5mph
Humidity: 78%   Direction: 130°SE
Pressure: 29.98"   Gusts: NA
Location:  18.4739°N, 66.7295°W
Report Text: TJBQ 211150Z 13004KT 10SM SKC 26/22 A2998 RMK RWY08- ATIS S
Loading
Personal Weather Stations






























Interactive Weather Map
Tropical Storm Tracking
New forecast layout! Learn more

10-Day Weather Forecast

Advertisements
Track Severe Weather on mobile